Time;durP1;ratioP1;P1;durP2;ratioP2;P2;SDS_P1;SDS_P2;PMS_P1;PMS_P2;Temp;Humidity;BMP_temperature;BMP_pressure;BME280_temperature;BME280_humidity;BME280_pressure;Samples;Min_cycle;Max_cycle;Signal;HPM_P1;HPM_P2
2022/05/20 00:00:27;;;;;;;7.83;5.47;;;20.90;99.90;;;;;;5073284;28;20501;-56
2022/05/20 00:02:55;;;;;;;12.70;6.50;;;20.80;99.90;;;;;;5073297;28;20451;-56
2022/05/20 00:05:22;;;;;;;5.93;5.30;;;20.80;99.90;;;;;;5073604;28;20547;-56
2022/05/20 00:07:49;;;;;;;6.20;5.57;;;20.90;99.90;;;;;;5073278;28;20998;-56
2022/05/20 00:10:18;;;;;;;5.80;5.30;;;20.80;99.90;;;;;;5073486;28;20531;-56
2022/05/20 00:12:46;;;;;;;10.33;5.97;;;20.80;99.90;;;;;;5073436;28;20444;-56
2022/05/20 00:15:21;;;;;;;5.63;5.13;;;20.80;99.90;;;;;;5073609;28;20484;-56
2022/05/20 00:17:48;;;;;;;6.30;5.70;;;20.70;99.90;;;;;;5073139;28;20882;-56
2022/05/20 00:20:18;;;;;;;6.27;5.70;;;20.70;99.90;;;;;;5073318;28;20456;-56
2022/05/20 00:22:45;;;;;;;9.00;5.03;;;20.70;99.90;;;;;;5073850;28;20435;-56
2022/05/20 00:28:02;;;;;;;7.23;5.77;;;20.60;99.90;;;;;;5073234;28;20878;-57
2022/05/20 00:30:29;;;;;;;8.30;5.60;;;20.60;99.90;;;;;;5073242;28;20453;-56
2022/05/20 00:32:57;;;;;;;10.07;5.80;;;20.60;99.90;;;;;;5072981;28;20883;-57
2022/05/20 00:35:24;;;;;;;8.40;5.73;;;20.60;99.90;;;;;;5075594;28;20448;-57
2022/05/20 00:37:52;;;;;;;5.47;4.97;;;20.60;99.90;;;;;;5076871;28;20440;-57
2022/05/20 00:40:23;;;;;;;7.60;5.70;;;20.60;99.90;;;;;;5076941;28;20454;-57
2022/05/20 00:42:50;;;;;;;8.10;5.67;;;20.60;99.90;;;;;;5076451;28;20479;-57
2022/05/20 00:45:20;;;;;;;6.67;6.07;;;20.60;99.90;;;;;;5077045;28;20460;-57
2022/05/20 00:47:47;;;;;;;5.73;5.23;;;20.60;99.90;;;;;;5077228;28;20860;-57
2022/05/20 00:50:17;;;;;;;6.13;5.50;;;20.60;99.90;;;;;;5076691;28;20561;-57
2022/05/20 00:52:49;;;;;;;6.03;5.53;;;20.60;99.90;;;;;;5076425;28;20935;-57
2022/05/20 00:55:19;;;;;;;6.60;5.70;;;20.60;99.90;;;;;;5076446;28;20412;-56
2022/05/20 00:57:52;;;;;;;7.93;6.00;;;20.60;99.90;;;;;;5076438;28;20895;-56
2022/05/20 01:00:23;;;;;;;7.33;6.60;;;20.60;99.90;;;;;;5076301;28;20435;-56
2022/05/20 01:02:54;;;;;;;6.47;5.73;;;20.50;99.90;;;;;;5076253;28;20428;-57
2022/05/20 01:05:26;;;;;;;6.03;5.53;;;20.50;99.90;;;;;;5076590;28;20428;-56
2022/05/20 01:07:55;;;;;;;9.50;5.80;;;20.50;99.90;;;;;;5076356;28;20822;-57
2022/05/20 01:10:23;;;;;;;6.40;5.80;;;20.50;99.90;;;;;;5076422;28;20497;-57
2022/05/20 01:12:51;;;;;;;8.00;6.10;;;20.50;99.90;;;;;;5076340;28;20536;-57
2022/05/20 01:15:20;;;;;;;9.10;5.57;;;20.50;99.90;;;;;;5075977;28;20454;-56
2022/05/20 01:17:50;;;;;;;7.87;5.83;;;20.50;99.90;;;;;;5076325;28;20441;-56
2022/05/20 01:20:22;;;;;;;10.30;5.87;;;20.60;99.90;;;;;;5075884;28;20444;-56
2022/05/20 01:23:01;;;;;;;9.57;5.73;;;20.60;99.90;;;;;;5076172;28;20433;-56
2022/05/20 01:25:30;;;;;;;5.70;5.20;;;20.60;99.90;;;;;;5076193;28;20429;-56
2022/05/20 01:27:59;;;;;;;6.20;5.60;;;20.60;99.90;;;;;;5075902;28;20516;-56
2022/05/20 01:30:28;;;;;;;7.73;5.93;;;20.60;99.90;;;;;;5075655;28;21025;-56
2022/05/20 01:32:56;;;;;;;6.30;5.77;;;20.60;99.90;;;;;;5075906;28;20787;-56
2022/05/20 01:35:28;;;;;;;6.10;5.00;;;20.60;99.90;;;;;;5075861;28;20448;-56
2022/05/20 01:37:57;;;;;;;10.33;4.83;;;20.60;99.90;;;;;;5075630;28;20516;-56
2022/05/20 01:40:27;;;;;;;6.10;5.60;;;20.60;99.90;;;;;;5075921;28;20479;-56
2022/05/20 01:43:00;;;;;;;9.80;6.10;;;20.60;99.90;;;;;;5075295;28;20511;-56
2022/05/20 01:45:34;;;;;;;6.53;5.73;;;20.60;99.90;;;;;;5075900;28;20409;-56
2022/05/20 01:48:10;;;;;;;7.73;5.40;;;20.60;99.90;;;;;;5075657;28;20476;-56
2022/05/20 01:50:43;;;;;;;7.00;5.30;;;20.60;99.90;;;;;;5075409;28;20432;-56
2022/05/20 01:53:16;;;;;;;6.10;5.60;;;20.60;99.90;;;;;;5075345;28;20425;-56
2022/05/20 01:55:48;;;;;;;7.33;6.63;;;20.70;99.90;;;;;;5075700;28;20457;-56
2022/05/20 01:58:19;;;;;;;7.43;5.80;;;20.70;99.90;;;;;;5075254;28;20460;-56
2022/05/20 02:00:48;;;;;;;6.80;6.07;;;20.70;99.90;;;;;;5075211;28;20804;-56
2022/05/20 02:03:21;;;;;;;10.73;5.87;;;20.70;99.90;;;;;;5075553;28;20874;-56
2022/05/20 02:06:03;;;;;;;6.40;5.80;;;20.70;99.90;;;;;;5075242;28;20432;-56
2022/05/20 02:08:36;;;;;;;7.00;5.90;;;20.70;99.90;;;;;;5075339;28;20512;-57
2022/05/20 02:11:08;;;;;;;6.40;5.80;;;20.60;99.90;;;;;;5075294;28;20504;-56
2022/05/20 02:13:39;;;;;;;8.27;5.83;;;20.70;99.90;;;;;;5075225;28;20448;-57
2022/05/20 02:16:10;;;;;;;6.30;5.70;;;20.70;99.90;;;;;;5075330;28;20425;-56
2022/05/20 02:18:42;;;;;;;9.00;6.40;;;20.60;99.90;;;;;;5074743;28;20468;-56
2022/05/20 02:21:13;;;;;;;7.70;7.00;;;20.60;99.90;;;;;;5075101;28;20448;-57
2022/05/20 02:23:45;;;;;;;8.07;6.03;;;20.60;99.90;;;;;;5074688;28;20531;-56
2022/05/20 02:26:16;;;;;;;6.43;5.77;;;20.60;99.90;;;;;;5074949;28;20432;-56
2022/05/20 02:28:46;;;;;;;7.03;6.30;;;20.50;99.90;;;;;;5074685;28;20848;-56
2022/05/20 02:31:21;;;;;;;8.80;5.50;;;20.50;99.90;;;;;;5074999;28;20453;-56
2022/05/20 02:33:48;;;;;;;14.97;6.07;;;20.50;99.90;;;;;;5074808;28;20410;-56
2022/05/20 02:36:21;;;;;;;6.37;5.87;;;20.50;99.90;;;;;;5074762;28;20806;-56
2022/05/20 02:38:50;;;;;;;8.20;6.27;;;20.50;99.90;;;;;;5074317;28;20465;-56
2022/05/20 02:41:17;;;;;;;8.50;6.90;;;20.40;99.90;;;;;;5075156;28;20539;-56
2022/05/20 02:43:45;;;;;;;7.77;5.77;;;;;;;;;;5074591;28;20469;-56
2022/05/20 02:46:13;;;;;;;8.13;7.20;;;20.30;99.90;;;;;;5075116;28;20521;-56
2022/05/20 02:48:41;;;;;;;7.10;6.50;;;20.20;99.90;;;;;;5074327;28;20864;-56
2022/05/20 02:51:08;;;;;;;6.97;6.23;;;20.20;99.90;;;;;;5074116;28;20577;-56
2022/05/20 02:53:35;;;;;;;7.27;6.67;;;20.20;99.90;;;;;;5074149;28;20441;-55
2022/05/20 02:56:05;;;;;;;6.17;5.57;;;20.20;99.90;;;;;;5074060;28;20458;-55
2022/05/20 03:04:12;;;;;;;9.23;6.60;;;20.20;99.90;;;;;;5074366;28;20423;-56
2022/05/20 03:06:40;;;;;;;6.57;5.63;;;20.20;99.90;;;;;;5074192;28;20493;-55
2022/05/20 03:09:08;;;;;;;7.67;6.07;;;20.20;99.90;;;;;;5074028;28;20579;-56
2022/05/20 03:11:39;;;;;;;8.90;6.60;;;20.20;99.90;;;;;;5074955;28;20439;-56
2022/05/20 03:14:08;;;;;;;7.53;6.87;;;20.10;99.90;;;;;;5074114;28;20463;-56
2022/05/20 03:16:36;;;;;;;10.70;7.30;;;19.90;99.90;;;;;;5074506;28;20505;-55
2022/05/20 03:19:04;;;;;;;7.90;7.20;;;19.90;99.90;;;;;;5073640;28;20507;-55
2022/05/20 03:21:32;;;;;;;7.67;6.83;;;19.90;99.90;;;;;;5073951;28;20452;-55
2022/05/20 03:24:00;;;;;;;7.27;6.57;;;19.90;99.90;;;;;;5073671;28;20452;-56
2022/05/20 03:26:28;;;;;;;7.40;6.70;;;19.90;99.90;;;;;;5074406;28;20934;-56
2022/05/20 03:28:59;;;;;;;7.47;6.73;;;19.90;99.90;;;;;;5073443;28;20484;-56
2022/05/20 03:31:26;;;;;;;10.93;6.13;;;20.00;99.90;;;;;;5073904;28;20429;-56
2022/05/20 03:33:54;;;;;;;7.73;7.03;;;20.10;99.90;;;;;;5073590;28;20439;-55
2022/05/20 03:36:21;;;;;;;7.17;6.50;;;20.20;99.90;;;;;;5073847;28;20867;-56
2022/05/20 03:38:48;;;;;;;8.33;6.60;;;20.20;99.90;;;;;;5073380;28;20467;-55
2022/05/20 03:41:16;;;;;;;7.07;6.47;;;20.30;99.90;;;;;;5073613;28;20484;-56
2022/05/20 03:43:43;;;;;;;6.70;6.00;;;20.30;99.90;;;;;;5073746;28;20460;-56
2022/05/20 03:46:11;;;;;;;7.77;7.10;;;20.40;99.90;;;;;;5073377;28;20449;-56
2022/05/20 03:48:38;;;;;;;9.40;6.63;;;20.40;99.90;;;;;;5073577;28;20488;-56
2022/05/20 03:51:10;;;;;;;7.30;6.27;;;20.40;99.90;;;;;;5073532;28;20429;-56
2022/05/20 03:53:37;;;;;;;8.83;6.70;;;20.50;99.90;;;;;;5073655;28;20452;-55
2022/05/20 03:56:05;;;;;;;6.63;5.97;;;20.50;99.90;;;;;;5073332;28;20448;-55
2022/05/20 03:58:32;;;;;;;6.73;5.93;;;20.50;99.90;;;;;;5073616;28;20468;-55
2022/05/20 04:03:46;;;;;;;7.27;6.10;;;20.50;99.90;;;;;;5073672;28;20408;-56
2022/05/20 04:06:14;;;;;;;6.90;6.40;;;20.50;99.90;;;;;;5073708;28;20539;-55
2022/05/20 04:08:41;;;;;;;7.00;6.30;;;20.50;99.90;;;;;;5074868;28;20812;-56
2022/05/20 04:11:11;;;;;;;7.07;6.27;;;20.60;99.90;;;;;;5077823;28;20440;-56
2022/05/20 04:13:40;;;;;;;6.23;5.63;;;20.60;99.90;;;;;;5077435;28;20452;-56
2022/05/20 04:16:07;;;;;;;9.10;6.30;;;20.60;99.90;;;;;;5077102;28;20931;-56
2022/05/20 04:18:34;;;;;;;6.77;6.17;;;20.60;99.90;;;;;;5077032;28;20468;-56
2022/05/20 04:21:04;;;;;;;8.60;5.87;;;20.60;99.90;;;;;;5077035;28;20486;-56
2022/05/20 04:23:31;;;;;;;8.30;5.73;;;20.60;99.90;;;;;;5077271;28;20559;-56
2022/05/20 04:25:58;;;;;;;6.73;5.57;;;20.60;99.90;;;;;;5076957;28;20444;-56
2022/05/20 04:28:25;;;;;;;6.53;5.93;;;20.50;99.90;;;;;;5077058;28;20990;-55
2022/05/20 04:30:57;;;;;;;6.30;5.70;;;20.60;99.90;;;;;;5077129;28;20526;-56
2022/05/20 04:33:25;;;;;;;5.50;5.00;;;20.60;99.90;;;;;;5076744;28;20428;-55
2022/05/20 04:35:52;;;;;;;6.33;5.73;;;20.60;99.90;;;;;;5077234;28;20476;-56
2022/05/20 04:38:21;;;;;;;7.43;5.27;;;20.60;99.90;;;;;;5076892;28;20551;-56
2022/05/20 04:46:56;;;;;;;7.40;5.53;;;20.60;99.90;;;;;;5076942;28;20493;-56
2022/05/20 04:49:08;;;;;;;6.57;5.33;;;20.60;99.90;;;;;;5076698;28;21005;-55
2022/05/20 04:51:35;;;;;;;6.00;4.97;;;20.70;99.90;;;;;;5076399;28;20506;-56
2022/05/20 04:56:49;;;;;;;5.80;5.17;;;20.70;99.90;;;;;;5076730;28;20408;-56
2022/05/20 04:59:17;;;;;;;6.47;5.80;;;20.70;99.90;;;;;;5076192;28;20496;-56
2022/05/20 05:01:44;;;;;;;6.10;5.60;;;20.70;99.90;;;;;;5076311;28;20444;-56
2022/05/20 05:04:11;;;;;;;7.70;5.10;;;20.70;99.90;;;;;;5076229;28;20448;-55
2022/05/20 05:06:39;;;;;;;5.57;5.03;;;20.70;99.90;;;;;;5076151;28;20773;-56
2022/05/20 05:09:07;;;;;;;8.50;5.27;;;20.80;99.90;;;;;;5076124;28;20567;-56
2022/05/20 05:11:39;;;;;;;6.13;5.53;;;20.80;99.90;;;;;;5076290;28;20451;-56
2022/05/20 05:14:08;;;;;;;6.33;4.80;;;20.80;99.90;;;;;;5076036;28;20455;-56
2022/05/20 05:16:36;;;;;;;5.37;4.87;;;20.80;99.90;;;;;;5076577;28;20492;-55
2022/05/20 05:19:03;;;;;;;6.57;5.80;;;20.80;99.90;;;;;;5076350;28;20500;-56
2022/05/20 05:21:30;;;;;;;5.60;5.10;;;20.90;99.90;;;;;;5075480;28;20455;-56
2022/05/20 05:24:01;;;;;;;7.80;5.30;;;21.00;99.90;;;;;;5075665;28;20527;-56
2022/05/20 05:26:31;;;;;;;8.10;5.50;;;21.00;99.90;;;;;;5076021;28;20521;-56
2022/05/20 05:28:59;;;;;;;7.30;5.57;;;21.10;99.90;;;;;;5075525;28;20558;-56
2022/05/20 05:31:27;;;;;;;6.10;5.47;;;21.10;99.90;;;;;;5075462;28;20452;-55
2022/05/20 05:33:54;;;;;;;7.93;5.50;;;21.20;99.90;;;;;;5075438;28;20545;-55
2022/05/20 05:36:22;;;;;;;6.37;5.67;;;21.10;99.90;;;;;;5075484;28;20935;-56
2022/05/20 05:38:49;;;;;;;7.20;5.30;;;21.20;99.90;;;;;;5075488;28;20460;-55
2022/05/20 05:41:17;;;;;;;7.37;5.17;;;21.30;99.90;;;;;;5075486;28;20480;-55
2022/05/20 05:43:47;;;;;;;13.57;5.23;;;21.30;99.90;;;;;;5075303;28;20452;-55
2022/05/20 05:46:14;;;;;;;5.77;5.20;;;21.30;99.90;;;;;;5075104;28;20451;-55
2022/05/20 05:48:41;;;;;;;5.60;5.10;;;21.40;99.90;;;;;;5075449;28;20827;-55
2022/05/20 05:51:09;;;;;;;6.20;5.70;;;21.50;99.90;;;;;;5075641;28;20444;-55
2022/05/20 05:53:36;;;;;;;6.07;5.23;;;21.60;99.90;;;;;;5075202;28;20448;-55
2022/05/20 05:56:06;;;;;;;5.83;5.20;;;21.60;99.90;;;;;;5075384;28;20476;-55
2022/05/20 05:58:35;;;;;;;8.20;5.47;;;21.70;99.90;;;;;;5075091;28;20552;-55
2022/05/20 06:01:04;;;;;;;5.70;5.30;;;21.50;99.90;;;;;;5075006;28;20448;-56
2022/05/20 06:03:31;;;;;;;7.67;5.07;;;21.60;99.90;;;;;;5075228;28;20472;-56
2022/05/20 06:05:59;;;;;;;6.97;6.37;;;21.70;99.90;;;;;;5075195;28;20535;-56
2022/05/20 06:08:26;;;;;;;6.20;5.60;;;21.80;99.90;;;;;;5074744;28;20533;-56
2022/05/20 06:10:54;;;;;;;6.07;5.47;;;21.70;99.90;;;;;;5074738;28;20444;-55
2022/05/20 06:13:26;;;;;;;7.23;5.97;;;21.70;99.90;;;;;;5074778;28;20456;-56
2022/05/20 06:15:55;;;;;;;8.47;5.57;;;21.80;99.90;;;;;;5074995;28;20511;-56
2022/05/20 06:18:24;;;;;;;5.87;4.90;;;21.90;99.90;;;;;;5074596;28;20478;-56
2022/05/20 06:20:52;;;;;;;5.20;4.53;;;22.00;99.90;;;;;;5074618;28;20451;-56
2022/05/20 06:23:19;;;;;;;5.60;5.10;;;22.10;99.90;;;;;;5074849;28;20808;-56
2022/05/20 06:25:46;;;;;;;5.07;4.63;;;22.10;99.90;;;;;;5074847;28;20431;-56
2022/05/20 06:28:16;;;;;;;5.93;5.40;;;22.30;99.90;;;;;;5074333;28;20499;-56
2022/05/20 06:30:44;;;;;;;10.23;4.80;;;22.50;99.90;;;;;;5074372;28;20455;-56
2022/05/20 06:33:12;;;;;;;6.13;4.70;;;22.50;99.90;;;;;;5073406;28;20965;-55
2022/05/20 06:41:10;;;;;;;6.40;5.17;;;23.00;99.90;;;;;;5074011;28;20551;-56
2022/05/20 06:43:38;;;;;;;6.70;5.00;;;23.10;99.90;;;;;;5074509;28;20436;-55
2022/05/20 06:46:06;;;;;;;9.43;5.00;;;23.20;99.90;;;;;;5074041;28;20444;-56
2022/05/20 06:48:44;;;;;;;5.20;4.50;;;23.40;99.90;;;;;;5074171;28;20530;-56
2022/05/20 06:51:17;;;;;;;5.80;4.47;;;23.50;99.90;;;;;;5074370;28;20429;-56
2022/05/20 06:53:45;;;;;;;5.33;4.83;;;23.60;99.90;;;;;;5073817;28;20429;-54
2022/05/20 06:56:13;;;;;;;6.50;4.50;;;23.60;99.90;;;;;;5074154;28;20444;-55
2022/05/20 06:58:40;;;;;;;5.20;4.70;;;23.70;99.90;;;;;;5074065;28;20552;-55
2022/05/20 07:01:07;;;;;;;6.70;5.10;;;23.80;99.90;;;;;;5073711;28;20927;-55
2022/05/20 07:03:35;;;;;;;5.30;4.50;;;24.00;99.90;;;;;;5073668;28;20455;-55
2022/05/20 07:06:03;;;;;;;5.50;4.53;;;24.00;99.90;;;;;;5074294;28;20445;-55
2022/05/20 07:08:32;;;;;;;7.93;4.97;;;24.20;99.90;;;;;;5073814;28;20488;-55
2022/05/20 07:11:01;;;;;;;4.87;4.47;;;24.30;99.90;;;;;;5073941;28;20471;-56
2022/05/20 07:13:29;;;;;;;6.00;4.80;;;24.40;99.90;;;;;;5073509;28;20464;-56
2022/05/20 07:15:57;;;;;;;5.10;4.60;;;24.50;99.90;;;;;;5073652;28;20482;-56
2022/05/20 07:18:25;;;;;;;4.87;4.43;;;24.70;99.90;;;;;;5073683;28;20954;-57
2022/05/20 07:20:52;;;;;;;5.83;4.40;;;24.90;99.90;;;;;;5073745;28;20530;-56
2022/05/20 07:23:19;;;;;;;4.63;4.07;;;25.40;99.90;;;;;;5073332;28;20535;-56
2022/05/20 07:25:50;;;;;;;5.07;4.30;;;25.90;99.90;;;;;;5073629;28;20519;-56
2022/05/20 07:28:17;;;;;;;5.03;4.20;;;26.40;99.90;;;;;;5073405;28;20464;-56
2022/05/20 07:30:44;;;;;;;7.70;4.43;;;26.60;99.90;;;;;;5074355;28;20499;-57
2022/05/20 07:33:11;;;;;;;4.77;4.27;;;26.90;99.90;;;;;;5073977;28;20451;-57
2022/05/20 07:35:39;;;;;;;6.17;5.57;;;27.50;99.90;;;;;;5073133;28;20849;-57
2022/05/20 07:38:06;;;;;;;4.97;4.50;;;28.10;99.90;;;;;;5073519;28;20471;-56
2022/05/20 07:40:33;;;;;;;4.60;4.20;;;28.50;99.90;;;;;;5073200;28;20953;-57
2022/05/20 07:43:02;;;;;;;5.03;4.53;;;28.60;99.90;;;;;;5072637;28;20487;-57
2022/05/20 07:45:29;;;;;;;6.00;4.87;;;;;;;;;;5073356;28;20424;-56
2022/05/20 07:48:25;;;;;;;5.07;4.23;;;29.10;98.50;;;;;;5073270;28;20946;-56
2022/05/20 07:54:19;;;;;;;4.60;4.20;;;29.40;97.40;;;;;;5073060;28;20404;-56
2022/05/20 07:56:52;;;;;;;9.37;4.33;;;29.60;96.80;;;;;;5072926;28;20437;-56
2022/05/20 07:59:25;;;;;;;5.23;4.73;;;29.90;96.70;;;;;;5073322;28;20784;-57
2022/05/20 08:01:54;;;;;;;5.47;4.43;;;29.90;96.30;;;;;;5073552;28;20528;-57
2022/05/20 08:07:10;;;;;;;6.47;5.10;;;30.90;94.90;;;;;;5073525;28;20404;-57
2022/05/20 08:09:37;;;;;;;9.70;3.80;;;31.40;95.10;;;;;;5072831;28;20978;-57
2022/05/20 08:12:09;;;;;;;5.37;4.80;;;31.60;94.50;;;;;;5073039;28;20451;-57
2022/05/20 08:14:37;;;;;;;7.07;4.50;;;31.80;94.00;;;;;;5072938;28;20480;-57
2022/05/20 08:17:05;;;;;;;5.20;4.23;;;31.80;92.80;;;;;;5073315;28;20524;-57
2022/05/20 08:19:33;;;;;;;7.07;4.83;;;31.80;92.10;;;;;;5073425;28;20547;-57
2022/05/20 08:22:01;;;;;;;5.17;4.67;;;32.20;91.20;;;;;;5073530;28;20467;-57
2022/05/20 08:24:29;;;;;;;5.40;4.87;;;31.90;91.00;;;;;;5073107;28;20962;-57
2022/05/20 08:26:57;;;;;;;7.70;5.50;;;31.80;90.70;;;;;;5073358;28;20535;-57
2022/05/20 08:29:24;;;;;;;4.83;4.43;;;32.20;89.40;;;;;;5073254;28;20486;-57
2022/05/20 08:31:52;;;;;;;4.60;3.70;;;31.90;90.20;;;;;;5072886;28;20490;-57
2022/05/20 08:34:19;;;;;;;7.80;4.90;;;32.40;89.40;;;;;;5072757;28;20934;-58
2022/05/20 08:36:47;;;;;;;7.80;4.80;;;32.50;85.90;;;;;;5072780;28;20542;-57
2022/05/20 08:39:14;;;;;;;7.80;4.30;;;32.60;85.80;;;;;;5072621;28;21021;-57
2022/05/20 08:41:45;;;;;;;4.10;3.70;;;32.40;86.90;;;;;;5072714;28;20476;-58
2022/05/20 08:44:14;;;;;;;4.60;4.03;;;32.60;88.20;;;;;;5073429;28;20456;-57
2022/05/20 08:46:42;;;;;;;4.80;4.20;;;32.70;82.50;;;;;;5072654;28;20451;-57
2022/05/20 08:49:13;;;;;;;5.67;4.70;;;32.20;81.70;;;;;;5072867;28;20566;-57
2022/05/20 08:51:43;;;;;;;5.73;4.10;;;32.50;82.70;;;;;;5073057;28;20486;-57
2022/05/20 08:54:11;;;;;;;5.50;4.50;;;32.70;81.70;;;;;;5072887;28;20459;-57
2022/05/20 08:56:38;;;;;;;7.80;5.17;;;32.80;83.40;;;;;;5075084;28;20543;-57
2022/05/20 08:59:08;;;;;;;7.90;5.00;;;33.40;80.80;;;;;;5076371;28;20463;-57
2022/05/20 09:01:39;;;;;;;4.77;4.03;;;33.50;82.70;;;;;;5076492;28;20858;-57
2022/05/20 09:04:08;;;;;;;5.13;4.70;;;33.70;79.20;;;;;;5076042;28;20973;-57
2022/05/20 09:06:40;;;;;;;6.70;4.93;;;33.20;79.40;;;;;;5076244;28;20450;-57
2022/05/20 09:09:10;;;;;;;4.50;3.70;;;33.20;78.20;;;;;;5076166;28;20484;-57
2022/05/20 09:11:38;;;;;;;4.47;4.07;;;33.80;75.70;;;;;;5076180;28;20534;-57
2022/05/20 09:17:05;;;;;;;4.43;4.03;;;33.20;70.40;;;;;;5076105;28;20408;-57
2022/05/20 09:19:33;;;;;;;4.63;4.20;;;33.40;69.50;;;;;;5075807;28;20451;-57
2022/05/20 09:22:07;;;;;;;7.47;4.50;;;33.60;68.80;;;;;;5076763;28;20555;-57
2022/05/20 09:24:40;;;;;;;5.10;4.17;;;33.90;70.60;;;;;;5076049;28;20527;-57
2022/05/20 09:27:10;;;;;;;5.33;4.93;;;33.50;68.20;;;;;;5075639;28;20633;-57
2022/05/20 09:29:40;;;;;;;8.10;4.70;;;34.00;72.30;;;;;;5075837;28;20563;-57
2022/05/20 09:32:22;;;;;;;6.40;4.40;;;34.40;70.50;;;;;;5075532;28;20439;-57
2022/05/20 09:35:01;;;;;;;4.93;4.40;;;34.00;67.80;;;;;;5075767;28;20463;-57
2022/05/20 09:37:32;;;;;;;7.60;4.40;;;33.90;67.20;;;;;;5076561;28;20432;-57
2022/05/20 09:40:15;;;;;;;11.10;5.10;;;32.90;66.90;;;;;;5075456;28;20558;-57
2022/05/20 09:42:58;;;;;;;6.50;5.20;;;32.70;67.60;;;;;;5075372;28;20834;-57
2022/05/20 09:45:26;;;;;;;5.00;4.50;;;33.10;67.40;;;;;;5075550;28;20796;-57
2022/05/20 09:47:56;;;;;;;5.93;4.37;;;33.20;67.50;;;;;;5076355;28;20486;-57
2022/05/20 09:50:28;;;;;;;5.03;4.40;;;32.90;66.20;;;;;;5075447;28;20559;-57
2022/05/20 09:53:00;;;;;;;6.13;4.60;;;32.70;67.10;;;;;;5074951;28;20454;-56
2022/05/20 09:55:31;;;;;;;6.83;4.63;;;33.20;65.80;;;;;;5075482;28;20429;-57
2022/05/20 09:58:13;;;;;;;8.47;4.60;;;34.00;66.60;;;;;;5075579;28;20467;-57
2022/05/20 10:00:45;;;;;;;7.50;4.70;;;34.20;64.90;;;;;;5075108;28;20431;-57
2022/05/20 10:03:19;;;;;;;7.13;4.57;;;34.60;67.80;;;;;;5075022;28;20443;-57
2022/05/20 10:05:53;;;;;;;5.50;5.00;;;34.70;62.70;;;;;;5074714;28;20515;-58
2022/05/20 10:08:25;;;;;;;6.33;4.10;;;34.40;62.80;;;;;;5074812;28;21022;-57
2022/05/20 10:11:07;;;;;;;4.80;4.07;;;34.40;64.40;;;;;;5076016;28;20547;-57
2022/05/20 10:13:45;;;;;;;6.93;4.60;;;34.60;63.80;;;;;;5075062;28;20491;-57
2022/05/20 10:16:29;;;;;;;5.07;4.40;;;34.60;63.20;;;;;;5075075;28;20464;-57
2022/05/20 10:19:06;;;;;;;4.87;4.23;;;35.10;63.70;;;;;;5075086;28;20529;-57
2022/05/20 10:21:49;;;;;;;7.37;4.37;;;35.30;62.10;;;;;;5074822;28;20428;-57
2022/05/20 10:24:41;;;;;;;4.73;4.07;;;35.40;59.80;;;;;;5075195;28;20404;-57
2022/05/20 10:27:16;;;;;;;6.27;4.83;;;35.10;60.80;;;;;;5074781;28;20481;-57
2022/05/20 10:32:47;;;;;;;6.57;4.90;;;34.30;59.50;;;;;;5074405;28;20902;-58
2022/05/20 10:35:18;;;;;;;7.40;5.17;;;34.40;59.50;;;;;;5074237;28;20523;-58
2022/05/20 10:38:15;;;;;;;4.80;4.40;;;34.40;58.70;;;;;;5074801;28;20535;-58
2022/05/20 10:40:59;;;;;;;7.17;3.90;;;34.70;59.30;;;;;;5075292;28;20440;-58
2022/05/20 10:49:46;;;;;;;4.63;4.20;;;34.50;55.60;;;;;;5074221;28;20478;-58
2022/05/20 10:52:26;;;;;;;8.03;4.80;;;35.40;56.60;;;;;;5074405;28;20498;-58
2022/05/20 10:55:06;;;;;;;5.83;4.60;;;35.20;54.40;;;;;;5074479;28;20531;-58
2022/05/20 10:58:06;;;;;;;6.53;4.60;;;35.80;56.10;;;;;;5074060;28;20467;-58
2022/05/20 11:00:44;;;;;;;5.40;4.20;;;35.60;54.50;;;;;;5071658;28;20955;-58
2022/05/20 11:03:43;;;;;;;5.67;3.30;;;35.80;53.20;;;;;;5073841;28;20493;-58
2022/05/20 11:06:34;;;;;;;3.77;3.43;;;35.70;53.70;;;;;;5073969;28;20455;-58
2022/05/20 11:09:05;;;;;;;5.50;4.10;;;35.70;53.20;;;;;;5073793;28;20467;-58
2022/05/20 11:11:54;;;;;;;7.60;4.20;;;36.30;53.50;;;;;;5074171;28;20551;-58
2022/05/20 11:14:54;;;;;;;5.00;3.70;;;36.70;52.70;;;;;;5073977;28;20482;-58
2022/05/20 11:17:47;;;;;;;5.10;3.33;;;36.10;52.40;;;;;;5049503;28;20447;-58
2022/05/20 11:20:24;;;;;;;7.90;3.80;;;36.10;51.80;;;;;;5073388;28;20996;-58
2022/05/20 11:23:19;;;;;;;8.40;6.57;;;36.10;53.10;;;;;;5073508;28;20432;-58
2022/05/20 11:26:17;;;;;;;5.00;4.50;;;36.60;51.10;;;;;;5073298;28;20482;-58
2022/05/20 11:29:16;;;;;;;4.93;4.40;;;36.00;51.70;;;;;;5073339;28;20476;-58
2022/05/20 11:31:49;;;;;;;6.13;3.77;;;35.50;50.80;;;;;;5073397;28;20486;-58
2022/05/20 11:34:53;;;;;;;5.57;4.70;;;35.00;51.80;;;;;;5073503;28;20854;-57
2022/05/20 11:37:43;;;;;;;5.97;4.00;;;35.00;51.40;;;;;;5071352;28;20542;-58
2022/05/20 11:40:36;;;;;;;9.03;4.10;;;34.80;51.40;;;;;;5064224;28;20838;-57
2022/05/20 11:43:43;;;;;;;5.70;3.83;;;34.80;51.70;;;;;;5051357;28;20823;-58
2022/05/20 11:46:25;;;;;;;6.07;4.40;;;35.00;51.30;;;;;;5057543;28;20938;-57
2022/05/20 11:49:26;;;;;;;7.20;4.00;;;35.20;51.60;;;;;;5069241;28;20561;-58
2022/05/20 11:52:32;;;;;;;5.77;4.27;;;35.10;51.00;;;;;;5067953;28;20476;-58
2022/05/20 11:55:05;;;;;;;9.60;4.40;;;35.30;51.80;;;;;;5065745;28;20459;-58
2022/05/20 11:57:38;;;;;;;6.07;4.60;;;35.00;51.70;;;;;;5070797;28;20466;-58
2022/05/20 12:00:08;;;;;;;10.07;4.57;;;34.50;52.90;;;;;;5072515;28;20464;-57
2022/05/20 12:02:40;;;;;;;4.43;3.90;;;34.80;51.40;;;;;;5069826;28;20547;-58
2022/05/20 12:05:15;;;;;;;6.67;3.77;;;34.70;51.70;;;;;;5064100;28;20468;-54
2022/05/20 12:07:42;;;;;;;5.50;4.13;;;35.10;51.80;;;;;;5061548;28;20860;-55
2022/05/20 12:10:41;;;;;;;4.83;4.20;;;35.00;52.30;;;;;;5061599;28;20578;-57
2022/05/20 12:13:13;;;;;;;4.47;4.00;;;34.80;52.10;;;;;;5049493;28;20986;-60
2022/05/20 12:15:43;;;;;;;13.20;4.27;;;35.30;52.50;;;;;;5067842;28;20458;-56
2022/05/20 12:24:30;;;;;;;6.97;4.77;;;34.00;52.20;;;;;;5063079;28;20803;-62
2022/05/20 12:27:02;;;;;;;9.07;4.97;;;33.70;52.10;;;;;;5064786;28;20801;-58
2022/05/20 12:30:06;;;;;;;5.10;4.40;;;34.00;52.20;;;;;;5068472;28;20974;-58
2022/05/20 12:32:54;;;;;;;8.70;4.77;;;33.60;51.70;;;;;;5072066;28;20458;-59
2022/05/20 12:35:29;;;;;;;7.40;4.90;;;33.70;52.30;;;;;;5072393;28;20463;-59
2022/05/20 12:38:25;;;;;;;4.83;4.10;;;34.00;52.40;;;;;;5069702;28;20538;-63
2022/05/20 12:41:14;;;;;;;7.23;4.13;;;34.60;51.80;;;;;;5067737;28;20443;-60
2022/05/20 12:43:58;;;;;;;5.90;4.20;;;34.60;51.30;;;;;;5072700;28;20525;-60
2022/05/20 12:46:53;;;;;;;6.17;4.30;;;34.50;51.90;;;;;;5074319;28;20521;-60
2022/05/20 12:49:22;;;;;;;9.50;4.80;;;34.80;51.30;;;;;;5069282;28;20584;-57
2022/05/20 12:51:51;;;;;;;6.10;4.60;;;34.80;52.60;;;;;;5072537;28;20977;-57
2022/05/20 12:54:22;;;;;;;7.20;5.13;;;35.00;51.10;;;;;;5072833;28;20484;-55
2022/05/20 12:56:55;;;;;;;5.93;3.60;;;34.40;50.90;;;;;;5068934;28;20483;-60
2022/05/20 12:59:25;;;;;;;5.50;4.27;;;34.20;50.40;;;;;;5067653;28;20485;-56
2022/05/20 13:01:58;;;;;;;5.60;4.47;;;34.30;50.10;;;;;;5067889;28;20559;-61
2022/05/20 13:04:28;;;;;;;4.57;3.10;;;34.30;50.10;;;;;;5071963;28;20480;-56
2022/05/20 13:06:58;;;;;;;4.30;3.90;;;33.90;50.30;;;;;;5066386;28;20543;-58
2022/05/20 13:09:29;;;;;;;6.23;4.57;;;34.00;49.80;;;;;;5073368;28;20471;-59
2022/05/20 13:12:07;;;;;;;6.20;4.03;;;34.60;51.90;;;;;;5075140;28;20463;-58
2022/05/20 13:14:36;;;;;;;7.20;4.20;;;34.90;49.80;;;;;;5077959;28;20468;-53
2022/05/20 13:17:04;;;;;;;5.30;4.20;;;35.10;49.10;;;;;;5071465;28;20470;-47
2022/05/20 13:19:45;;;;;;;4.40;4.03;;;34.60;48.50;;;;;;5070425;28;20521;-56
2022/05/20 13:22:16;;;;;;;7.00;3.73;;;34.10;47.50;;;;;;5068213;28;20476;-65
2022/05/20 13:24:45;;;;;;;11.20;4.30;;;33.60;48.00;;;;;;5070826;28;20501;-62
2022/05/20 13:27:18;;;;;;;5.07;4.33;;;33.90;48.50;;;;;;5071421;28;20464;-56
2022/05/20 13:29:47;;;;;;;4.70;3.67;;;34.00;48.20;;;;;;5065325;28;20591;-60
2022/05/20 13:32:28;;;;;;;5.80;4.80;;;34.40;48.50;;;;;;5072689;28;21008;-58
2022/05/20 13:34:57;;;;;;;5.10;4.10;;;33.90;47.50;;;;;;5076925;28;20464;-59
2022/05/20 13:37:28;;;;;;;5.93;3.87;;;34.00;49.20;;;;;;5070601;28;20559;-65
2022/05/20 13:40:07;;;;;;;4.17;3.37;;;34.20;48.10;;;;;;5063750;28;20487;-58
2022/05/20 13:42:35;;;;;;;7.73;3.67;;;34.20;48.10;;;;;;5064466;28;20494;-58
2022/05/20 13:45:14;;;;;;;10.47;4.53;;;34.30;47.80;;;;;;5071758;28;20547;-62
2022/05/20 13:50:28;;;;;;;6.43;4.23;;;34.10;49.00;;;;;;5067909;28;20538;-59
2022/05/20 13:52:59;;;;;;;5.30;3.30;;;34.40;48.20;;;;;;5066803;28;20492;-61
2022/05/20 13:55:34;;;;;;;4.30;3.90;;;33.80;48.10;;;;;;5070383;28;20456;-58
2022/05/20 13:58:02;;;;;;;5.53;4.20;;;33.80;48.30;;;;;;5067868;28;20509;-60
2022/05/20 14:00:36;;;;;;;7.60;4.00;;;33.90;48.60;;;;;;5068350;28;20455;-62
2022/05/20 14:03:07;;;;;;;5.90;3.50;;;33.90;48.10;;;;;;5069654;28;20449;-60
2022/05/20 14:05:44;;;;;;;5.13;3.90;;;33.90;48.30;;;;;;5069265;28;20448;-62